Time;durP1;ratioP1;P1;durP2;ratioP2;P2;SDS_P1;SDS_P2;PMS_P1;PMS_P2;Temp;Humidity;BMP_temperature;BMP_pressure;BME280_temperature;BME280_humidity;BME280_pressure;Samples;Min_cycle;Max_cycle;Signal;HPM_P1;HPM_P2
2021/09/12 00:02:15;;;;;;;1.37;1.20;;;26.40;66.40;;;;;;5144376;27;20885;-42
2021/09/12 00:04:46;;;;;;;2.30;1.50;;;26.40;65.90;;;;;;5143434;27;20485;-43
2021/09/12 00:07:17;;;;;;;1.63;1.30;;;26.30;66.80;;;;;;5143549;27;20445;-42
2021/09/12 00:09:48;;;;;;;1.67;1.57;;;26.20;67.90;;;;;;5141857;27;20489;-42
2021/09/12 00:12:19;;;;;;;1.87;1.77;;;26.10;68.20;;;;;;5143737;27;20462;-42
2021/09/12 00:14:50;;;;;;;3.30;3.10;;;26.00;67.40;;;;;;5141794;27;20523;-42
2021/09/12 00:17:27;;;;;;;2.73;2.53;;;25.90;68.10;;;;;;5142367;27;20584;-42
2021/09/12 00:19:58;;;;;;;2.77;2.53;;;25.90;69.00;;;;;;5139751;27;20453;-42
2021/09/12 00:22:29;;;;;;;2.40;2.30;;;26.00;68.90;;;;;;5144432;27;20446;-42
2021/09/12 00:25:00;;;;;;;2.90;2.70;;;26.00;70.40;;;;;;5141643;27;20448;-42
2021/09/12 00:27:31;;;;;;;3.00;2.73;;;25.90;69.70;;;;;;5143160;27;20494;-42
2021/09/12 00:30:01;;;;;;;2.90;2.70;;;25.80;70.60;;;;;;5143932;27;20482;-42
2021/09/12 00:32:35;;;;;;;3.93;3.63;;;25.80;69.00;;;;;;5142902;27;20788;-42
2021/09/12 00:35:07;;;;;;;3.60;3.40;;;25.80;71.60;;;;;;5146399;27;20440;-42
2021/09/12 00:37:38;;;;;;;3.60;3.40;;;25.80;70.20;;;;;;5142622;27;20441;-42
2021/09/12 00:40:11;;;;;;;4.13;3.73;;;25.80;71.00;;;;;;5142675;27;20486;-42
2021/09/12 00:42:42;;;;;;;4.00;3.80;;;25.80;70.90;;;;;;5143042;27;20509;-42
2021/09/12 00:45:13;;;;;;;3.07;2.80;;;25.80;71.40;;;;;;5142877;27;20456;-42
2021/09/12 00:47:47;;;;;;;2.40;2.30;;;25.70;71.00;;;;;;5143884;27;20838;-42
2021/09/12 00:50:19;;;;;;;2.20;2.10;;;25.70;70.70;;;;;;5141393;27;20490;-42
2021/09/12 00:52:51;;;;;;;2.40;2.20;;;25.70;69.40;;;;;;5143760;27;20472;-42
2021/09/12 00:55:23;;;;;;;1.57;1.30;;;25.60;71.20;;;;;;5141780;27;20480;-42
2021/09/12 00:57:55;;;;;;;1.33;1.33;;;25.50;71.20;;;;;;5138471;27;20501;-42
2021/09/12 01:00:27;;;;;;;1.33;1.23;;;25.40;70.60;;;;;;5142687;27;20449;-42
2021/09/12 01:02:59;;;;;;;1.60;1.50;;;25.30;71.90;;;;;;5131216;27;20438;-42
2021/09/12 01:05:30;;;;;;;1.90;1.80;;;25.30;71.40;;;;;;5143999;28;20520;-42
2021/09/12 01:08:01;;;;;;;2.67;2.47;;;25.30;72.30;;;;;;5143292;28;20488;-42
2021/09/12 01:10:32;;;;;;;1.70;1.60;;;25.00;73.80;;;;;;5143182;28;20481;-42
2021/09/12 01:13:03;;;;;;;2.83;2.40;;;25.00;74.30;;;;;;5143082;27;20545;-42
2021/09/12 01:15:35;;;;;;;2.00;1.90;;;25.00;75.10;;;;;;5143186;27;20441;-42
2021/09/12 01:18:08;;;;;;;1.93;1.83;;;25.00;74.60;;;;;;5144422;27;20456;-42
2021/09/12 01:20:39;;;;;;;2.13;1.60;;;25.00;74.60;;;;;;5143375;28;20787;-41
2021/09/12 01:23:10;;;;;;;1.70;1.57;;;24.90;74.40;;;;;;5143468;27;20509;-41
2021/09/12 01:25:42;;;;;;;1.50;1.40;;;24.80;75.20;;;;;;5143033;27;20449;-42
2021/09/12 01:28:13;;;;;;;1.67;1.57;;;24.70;76.10;;;;;;5127439;28;20468;-42
2021/09/12 01:30:44;;;;;;;1.80;1.70;;;24.70;76.40;;;;;;5143426;28;20513;-42
2021/09/12 01:33:16;;;;;;;2.27;2.17;;;24.60;76.10;;;;;;5144002;27;20519;-42
2021/09/12 01:35:46;;;;;;;1.80;1.70;;;24.60;77.00;;;;;;5142326;28;20449;-42
2021/09/12 01:38:17;;;;;;;1.70;1.60;;;24.50;77.30;;;;;;5142743;27;20441;-42
2021/09/12 01:40:50;;;;;;;2.20;2.00;;;24.50;76.60;;;;;;5143232;27;20452;-42
2021/09/12 01:43:22;;;;;;;2.03;1.83;;;24.50;77.70;;;;;;5143406;28;20452;-42
2021/09/12 01:45:53;;;;;;;2.70;2.50;;;24.40;78.50;;;;;;5143154;27;20461;-42
2021/09/12 01:48:24;;;;;;;2.00;1.90;;;24.20;78.90;;;;;;5141954;28;20440;-42
2021/09/12 01:50:55;;;;;;;2.90;2.70;;;24.20;78.70;;;;;;5143195;27;20484;-42
2021/09/12 01:53:26;;;;;;;2.60;2.40;;;24.10;79.80;;;;;;5142870;27;20561;-42
2021/09/12 01:55:58;;;;;;;2.50;2.33;;;24.00;80.30;;;;;;5143282;28;20448;-42
2021/09/12 01:58:29;;;;;;;2.10;2.00;;;24.00;80.20;;;;;;5143096;28;20557;-42
2021/09/12 02:01:00;;;;;;;2.43;2.33;;;23.90;80.20;;;;;;5143355;28;20452;-42
2021/09/12 02:03:32;;;;;;;2.40;2.20;;;23.80;81.10;;;;;;5143655;27;20480;-42
2021/09/12 02:06:03;;;;;;;3.67;2.80;;;23.80;79.50;;;;;;5143148;27;20473;-42
2021/09/12 02:08:35;;;;;;;2.03;1.90;;;23.70;80.20;;;;;;5143216;27;20448;-42
2021/09/12 02:11:08;;;;;;;2.23;1.87;;;23.60;79.40;;;;;;5143766;27;20492;-42
2021/09/12 02:13:39;;;;;;;1.67;1.57;;;23.60;78.80;;;;;;5146236;27;20448;-42
2021/09/12 02:16:10;;;;;;;2.00;1.80;;;23.50;79.60;;;;;;5145677;27;20433;-43
2021/09/12 02:18:41;;;;;;;1.60;1.40;;;23.40;79.90;;;;;;5142864;27;20518;-43
2021/09/12 02:21:12;;;;;;;1.70;1.60;;;23.40;80.40;;;;;;5143605;27;20540;-43
2021/09/12 02:23:43;;;;;;;1.70;1.60;;;23.30;80.60;;;;;;5142137;27;20481;-42
2021/09/12 02:26:15;;;;;;;1.50;1.40;;;23.20;81.90;;;;;;5146215;27;20468;-42
2021/09/12 02:28:46;;;;;;;1.70;1.60;;;23.10;82.50;;;;;;5145781;27;20465;-42
2021/09/12 02:31:17;;;;;;;1.70;1.60;;;23.00;83.20;;;;;;5147278;27;20496;-42
2021/09/12 02:33:49;;;;;;;2.27;2.07;;;23.00;83.80;;;;;;5145562;27;20473;-40
2021/09/12 02:36:20;;;;;;;2.20;2.00;;;22.90;84.90;;;;;;5145830;27;20481;-42
2021/09/12 02:38:50;;;;;;;2.13;2.03;;;22.80;85.60;;;;;;5145166;27;20441;-42
2021/09/12 02:41:23;;;;;;;2.23;2.10;;;22.80;86.60;;;;;;5147519;27;20469;-41
2021/09/12 02:43:54;;;;;;;1.90;1.80;;;22.70;87.70;;;;;;5145205;27;20441;-42
2021/09/12 02:46:25;;;;;;;1.90;1.80;;;22.60;87.90;;;;;;5155260;27;20468;-41
2021/09/12 02:48:56;;;;;;;2.00;1.90;;;22.50;89.10;;;;;;5147236;27;20529;-43
2021/09/12 02:51:27;;;;;;;2.10;1.90;;;22.40;89.70;;;;;;5148130;27;20481;-42
2021/09/12 02:53:58;;;;;;;2.20;2.10;;;22.30;90.50;;;;;;5147853;27;20427;-41
2021/09/12 02:56:30;;;;;;;2.40;2.30;;;22.20;91.00;;;;;;5142360;27;20488;-42
2021/09/12 02:59:01;;;;;;;2.03;1.93;;;22.20;91.60;;;;;;5142589;27;20978;-42
2021/09/12 03:01:32;;;;;;;2.60;2.40;;;22.10;91.80;;;;;;5145879;27;20436;-42
2021/09/12 03:04:04;;;;;;;3.03;2.83;;;22.00;92.50;;;;;;5145897;27;20913;-42
2021/09/12 03:06:35;;;;;;;2.90;2.60;;;21.90;92.90;;;;;;5145869;27;20476;-43
2021/09/12 03:09:06;;;;;;;3.60;2.30;;;21.90;93.50;;;;;;5143800;27;20480;-42
2021/09/12 03:11:38;;;;;;;3.67;2.03;;;21.80;93.60;;;;;;5145790;27;20514;-42
2021/09/12 03:14:09;;;;;;;2.23;2.13;;;21.80;94.10;;;;;;5144379;27;20474;-42
2021/09/12 03:16:40;;;;;;;2.70;2.50;;;21.70;94.60;;;;;;5138954;27;20536;-42
2021/09/12 03:19:11;;;;;;;2.40;2.20;;;21.70;95.10;;;;;;5144979;27;20424;-41
2021/09/12 03:21:42;;;;;;;2.70;2.40;;;21.60;95.10;;;;;;5146383;27;20448;-42
2021/09/12 03:24:13;;;;;;;2.50;2.30;;;21.60;95.90;;;;;;5158094;27;20449;-43
2021/09/12 03:26:46;;;;;;;4.00;3.60;;;21.50;96.60;;;;;;5145775;27;20830;-42
2021/09/12 03:29:17;;;;;;;4.90;2.70;;;21.50;96.80;;;;;;5144736;27;20441;-42
2021/09/12 03:31:49;;;;;;;2.40;2.20;;;21.50;97.20;;;;;;5144694;27;20488;-42
2021/09/12 03:34:20;;;;;;;2.80;2.57;;;21.50;97.50;;;;;;5144906;27;20459;-42
2021/09/12 03:36:51;;;;;;;2.83;2.63;;;21.60;98.10;;;;;;5145354;27;20457;-42
2021/09/12 03:39:23;;;;;;;3.10;2.80;;;21.60;98.40;;;;;;5144383;27;20479;-42
2021/09/12 03:41:55;;;;;;;3.00;2.60;;;21.60;98.80;;;;;;5144853;27;20448;-42
2021/09/12 03:44:26;;;;;;;2.33;2.13;;;21.50;99.20;;;;;;5145053;27;20437;-42
2021/09/12 03:46:57;;;;;;;4.10;2.23;;;21.50;99.80;;;;;;5143145;27;20876;-42
2021/09/12 03:49:28;;;;;;;2.60;2.40;;;21.40;99.90;;;;;;5144089;27;20453;-42
2021/09/12 03:51:59;;;;;;;2.33;2.23;;;21.40;99.90;;;;;;5144802;27;20508;-41
2021/09/12 03:54:30;;;;;;;2.63;2.43;;;21.30;99.90;;;;;;5144025;27;20449;-42
2021/09/12 03:57:02;;;;;;;3.53;3.00;;;21.30;99.90;;;;;;5144498;27;20441;-42
2021/09/12 03:59:33;;;;;;;2.97;2.77;;;21.30;99.90;;;;;;5143828;27;20475;-42
2021/09/12 04:02:04;;;;;;;3.27;2.97;;;21.20;99.90;;;;;;5140441;27;20449;-41
2021/09/12 04:04:35;;;;;;;2.57;2.47;;;21.30;99.90;;;;;;5139677;27;20449;-42
2021/09/12 04:07:06;;;;;;;3.50;3.20;;;21.20;99.90;;;;;;5139715;27;20453;-41
2021/09/12 04:09:37;;;;;;;3.63;2.63;;;21.30;99.90;;;;;;5142465;27;20449;-42
2021/09/12 04:12:11;;;;;;;2.40;2.30;;;21.30;99.90;;;;;;5144582;27;20511;-41
2021/09/12 04:14:42;;;;;;;3.17;2.97;;;21.20;99.90;;;;;;5140964;27;20470;-42
2021/09/12 04:17:13;;;;;;;3.00;2.37;;;21.30;99.90;;;;;;5143938;27;20526;-41
2021/09/12 04:19:44;;;;;;;2.97;2.77;;;21.20;99.90;;;;;;5144045;27;20449;-41
2021/09/12 04:22:15;;;;;;;3.37;3.07;;;21.20;99.90;;;;;;5146160;27;20807;-42
2021/09/12 04:24:46;;;;;;;2.87;2.67;;;21.20;99.90;;;;;;5143297;27;20591;-41
2021/09/12 04:27:18;;;;;;;3.50;3.20;;;21.20;99.90;;;;;;5143413;27;20433;-42
2021/09/12 04:29:49;;;;;;;2.90;2.70;;;21.10;99.90;;;;;;5136404;27;20559;-42
2021/09/12 04:35:10;;;;;;;6.00;3.03;;;21.10;99.90;;;;;;5141765;27;20472;-42
2021/09/12 04:37:41;;;;;;;2.97;2.77;;;21.10;99.90;;;;;;5142936;27;20452;-43
2021/09/12 04:40:13;;;;;;;3.00;2.80;;;21.10;99.90;;;;;;5132591;27;20769;-41
2021/09/12 04:42:45;;;;;;;3.30;3.10;;;21.10;99.90;;;;;;5143803;27;20469;-41
2021/09/12 04:45:17;;;;;;;5.40;2.90;;;21.10;99.90;;;;;;5144336;27;20453;-41
2021/09/12 04:47:48;;;;;;;3.63;3.20;;;21.10;99.90;;;;;;5143523;27;20445;-41
2021/09/12 04:50:19;;;;;;;2.83;2.63;;;21.00;99.90;;;;;;5143468;27;20867;-42
2021/09/12 04:52:50;;;;;;;3.30;3.00;;;20.90;99.90;;;;;;5143560;27;20499;-42
2021/09/12 04:55:21;;;;;;;3.20;3.00;;;20.90;99.90;;;;;;5142191;27;20525;-42
2021/09/12 04:57:54;;;;;;;3.50;3.30;;;20.90;99.90;;;;;;5143285;27;20468;-42
2021/09/12 05:00:25;;;;;;;3.73;3.43;;;20.90;99.90;;;;;;5144029;27;20927;-42
2021/09/12 05:02:56;;;;;;;3.57;3.27;;;20.80;99.90;;;;;;5143584;27;20434;-42
2021/09/12 05:05:28;;;;;;;3.43;3.20;;;20.90;99.90;;;;;;5143228;27;20457;-42
2021/09/12 05:07:59;;;;;;;2.87;2.67;;;20.80;99.90;;;;;;5143369;27;20459;-42
2021/09/12 05:10:31;;;;;;;2.83;2.63;;;20.80;99.90;;;;;;5142440;27;20512;-41
2021/09/12 05:13:04;;;;;;;3.53;3.23;;;20.80;99.90;;;;;;5142944;27;20480;-42
2021/09/12 05:15:35;;;;;;;4.27;3.40;;;20.70;99.90;;;;;;5143496;28;20457;-41
2021/09/12 05:18:06;;;;;;;3.90;2.87;;;20.70;99.90;;;;;;5143503;27;20423;-41
2021/09/12 05:20:37;;;;;;;3.27;3.07;;;20.60;99.90;;;;;;5143523;28;20925;-42
2021/09/12 05:23:08;;;;;;;3.13;2.93;;;20.60;99.90;;;;;;5143259;27;20488;-42
2021/09/12 05:25:39;;;;;;;4.30;3.00;;;20.70;99.90;;;;;;5141873;28;20441;-42
2021/09/12 05:28:12;;;;;;;5.70;3.17;;;20.60;99.90;;;;;;5141822;28;20433;-42
2021/09/12 05:30:43;;;;;;;3.30;3.10;;;20.60;99.90;;;;;;5142326;27;20427;-41
2021/09/12 05:33:14;;;;;;;3.67;3.37;;;20.50;99.90;;;;;;5143031;27;20611;-42
2021/09/12 05:35:45;;;;;;;4.27;3.20;;;20.50;99.90;;;;;;5140637;28;20492;-41
2021/09/12 05:38:16;;;;;;;3.70;3.23;;;20.40;99.90;;;;;;5142987;27;20485;-41
2021/09/12 05:40:47;;;;;;;3.23;3.03;;;20.30;99.90;;;;;;5142302;28;20452;-41
2021/09/12 05:43:20;;;;;;;3.77;3.47;;;20.20;99.90;;;;;;5143652;27;20456;-41
2021/09/12 05:45:51;;;;;;;3.20;3.00;;;20.30;99.90;;;;;;5143581;27;20419;-41
2021/09/12 05:48:22;;;;;;;4.10;3.73;;;20.20;99.90;;;;;;5147591;27;20448;-41
2021/09/12 05:50:53;;;;;;;4.40;3.70;;;20.20;99.90;;;;;;5147243;27;20463;-42
2021/09/12 05:53:24;;;;;;;4.50;4.10;;;20.20;99.90;;;;;;5146894;27;20955;-42
2021/09/12 05:55:55;;;;;;;5.40;3.67;;;20.10;99.90;;;;;;5145774;27;20479;-41
2021/09/12 05:58:28;;;;;;;4.47;4.17;;;20.00;99.90;;;;;;5146270;27;20530;-41
2021/09/12 06:00:59;;;;;;;4.63;4.33;;;20.00;99.90;;;;;;5146419;27;20474;-42
2021/09/12 06:03:30;;;;;;;5.77;5.27;;;20.00;99.90;;;;;;5147090;27;20435;-41
2021/09/12 06:06:01;;;;;;;5.93;5.43;;;20.00;99.90;;;;;;5143829;27;20523;-42
2021/09/12 06:08:32;;;;;;;5.17;4.77;;;20.00;99.90;;;;;;5145504;27;20431;-42
2021/09/12 06:11:03;;;;;;;6.60;6.10;;;19.90;99.90;;;;;;5146235;27;20935;-42
2021/09/12 06:13:36;;;;;;;6.40;5.83;;;19.90;99.90;;;;;;5145092;27;20504;-42
2021/09/12 06:16:08;;;;;;;6.90;6.30;;;19.90;99.90;;;;;;5145583;27;20419;-42
2021/09/12 06:18:40;;;;;;;7.00;6.40;;;19.80;99.90;;;;;;5146772;27;20415;-43
2021/09/12 06:21:10;;;;;;;7.03;6.53;;;19.70;99.90;;;;;;5146145;27;20424;-43
2021/09/12 06:23:42;;;;;;;7.50;6.90;;;19.70;99.90;;;;;;5146007;27;20447;-43
2021/09/12 06:26:13;;;;;;;7.80;7.00;;;19.60;99.90;;;;;;5142509;27;20538;-41
2021/09/12 06:28:45;;;;;;;8.03;7.43;;;19.60;99.90;;;;;;5145805;27;20444;-43
2021/09/12 06:31:16;;;;;;;7.57;6.87;;;19.60;99.90;;;;;;5135174;27;20448;-42
2021/09/12 06:33:48;;;;;;;7.43;6.73;;;19.60;99.90;;;;;;5146016;27;20492;-42
2021/09/12 06:36:19;;;;;;;6.83;6.23;;;19.50;99.90;;;;;;5146159;27;20452;-42
2021/09/12 06:38:50;;;;;;;6.97;6.40;;;19.50;99.90;;;;;;5145501;27;20491;-42
2021/09/12 06:41:21;;;;;;;6.30;5.80;;;19.50;99.90;;;;;;5145872;27;20484;-41
2021/09/12 06:43:53;;;;;;;7.00;6.30;;;19.50;99.90;;;;;;5146053;27;21100;-42
2021/09/12 06:46:24;;;;;;;6.53;5.93;;;19.50;99.90;;;;;;5140520;27;20483;-42
2021/09/12 06:48:55;;;;;;;6.13;5.60;;;19.40;99.90;;;;;;5145805;27;20453;-42
2021/09/12 06:51:26;;;;;;;6.60;6.07;;;19.40;99.90;;;;;;5145357;27;20455;-42
2021/09/12 06:53:57;;;;;;;7.23;6.57;;;19.30;99.90;;;;;;5140796;27;20544;-42
2021/09/12 06:56:28;;;;;;;6.60;5.97;;;19.30;99.90;;;;;;5143939;27;20512;-42
2021/09/12 06:59:01;;;;;;;6.97;6.47;;;19.30;99.90;;;;;;5143230;27;20420;-42
2021/09/12 07:01:32;;;;;;;5.80;5.30;;;19.20;99.90;;;;;;5144741;27;20533;-41
2021/09/12 07:04:03;;;;;;;8.53;6.20;;;19.20;99.90;;;;;;5145056;27;20535;-42
2021/09/12 07:06:34;;;;;;;6.27;5.77;;;19.20;99.90;;;;;;5145595;27;20488;-41
2021/09/12 07:09:05;;;;;;;6.30;5.80;;;19.20;99.90;;;;;;5144961;27;20455;-41
2021/09/12 07:11:37;;;;;;;6.87;6.27;;;19.10;99.90;;;;;;5145455;27;20426;-42
2021/09/12 07:14:10;;;;;;;6.60;6.00;;;19.00;99.90;;;;;;5143677;27;20500;-42
2021/09/12 07:16:41;;;;;;;6.87;6.27;;;19.00;99.90;;;;;;5144993;27;20441;-42
2021/09/12 07:19:12;;;;;;;6.90;6.20;;;19.00;99.90;;;;;;5144730;27;20565;-41
2021/09/12 07:21:43;;;;;;;6.37;5.50;;;18.90;99.90;;;;;;5144797;27;20416;-41
2021/09/12 07:24:14;;;;;;;6.07;5.57;;;18.90;99.90;;;;;;5144243;27;20423;-42
2021/09/12 07:26:45;;;;;;;6.57;5.97;;;18.80;99.90;;;;;;5145253;27;20465;-41
2021/09/12 07:29:17;;;;;;;6.00;5.60;;;18.80;99.90;;;;;;5140043;27;20490;-42
2021/09/12 07:31:49;;;;;;;6.57;5.90;;;18.80;99.90;;;;;;5144788;27;20473;-41
2021/09/12 07:34:20;;;;;;;6.40;5.77;;;18.70;99.90;;;;;;5144222;27;20507;-41
2021/09/12 07:36:51;;;;;;;5.97;5.47;;;18.80;99.90;;;;;;5144669;27;20462;-41
2021/09/12 07:39:22;;;;;;;6.43;5.93;;;18.70;99.90;;;;;;5144161;27;20708;-41
2021/09/12 07:41:53;;;;;;;6.37;5.87;;;18.60;99.90;;;;;;5145141;27;20628;-41
2021/09/12 07:44:26;;;;;;;5.23;4.83;;;18.60;99.90;;;;;;5144626;27;20483;-42
2021/09/12 07:46:57;;;;;;;5.53;5.13;;;18.70;99.90;;;;;;5144095;27;20443;-41
2021/09/12 07:49:27;;;;;;;5.33;4.83;;;18.70;99.90;;;;;;5144783;27;20793;-41
2021/09/12 07:51:58;;;;;;;5.90;5.40;;;18.60;99.90;;;;;;5144493;27;20449;-41
2021/09/12 07:54:29;;;;;;;4.70;4.40;;;18.60;99.90;;;;;;5142961;27;20439;-42
2021/09/12 07:57:01;;;;;;;4.57;4.20;;;18.50;99.90;;;;;;5144406;27;20435;-42
2021/09/12 07:59:33;;;;;;;5.10;4.63;;;18.50;99.90;;;;;;5143861;27;20486;-41
2021/09/12 08:02:04;;;;;;;5.03;4.67;;;18.50;99.90;;;;;;5144455;27;20459;-41
2021/09/12 08:04:36;;;;;;;4.47;4.10;;;18.40;99.90;;;;;;5144453;27;20443;-41
2021/09/12 08:07:06;;;;;;;4.67;4.27;;;18.40;99.90;;;;;;5144772;27;20466;-41
2021/09/12 08:09:37;;;;;;;3.70;3.40;;;18.30;99.90;;;;;;5143893;27;20441;-41
2021/09/12 08:12:09;;;;;;;4.47;3.90;;;18.40;99.90;;;;;;5140734;27;20560;-41
2021/09/12 08:14:41;;;;;;;3.97;3.63;;;18.50;99.90;;;;;;5140099;27;20504;-42
2021/09/12 08:17:12;;;;;;;3.90;3.60;;;18.50;99.90;;;;;;5139140;27;20419;-41
2021/09/12 08:19:43;;;;;;;3.80;3.50;;;18.50;99.90;;;;;;5144409;27;20477;-41
2021/09/12 08:22:14;;;;;;;4.27;3.80;;;18.50;99.90;;;;;;5144296;27;20469;-41
2021/09/12 08:24:45;;;;;;;4.00;3.70;;;18.50;99.90;;;;;;5143964;27;20543;-42
2021/09/12 08:27:16;;;;;;;4.13;3.83;;;18.50;99.90;;;;;;5142167;27;20458;-41
2021/09/12 08:29:49;;;;;;;4.23;3.70;;;18.50;99.90;;;;;;5143922;27;20415;-42
2021/09/12 08:32:39;;;;;;;4.37;4.03;;;18.50;99.90;;;;;;5143342;27;20486;-41
2021/09/12 08:35:11;;;;;;;5.00;4.57;;;18.50;99.90;;;;;;5143621;27;20427;-41
2021/09/12 08:37:42;;;;;;;4.23;3.50;;;18.40;99.90;;;;;;5143676;27;20451;-42
2021/09/12 08:40:14;;;;;;;4.33;3.97;;;18.40;99.90;;;;;;5142835;27;20438;-41
2021/09/12 08:42:45;;;;;;;6.50;4.20;;;18.40;99.90;;;;;;5143425;27;20441;-42
2021/09/12 08:45:18;;;;;;;4.63;4.23;;;18.30;99.90;;;;;;5143247;27;20420;-42
2021/09/12 08:47:49;;;;;;;4.00;3.70;;;18.30;99.90;;;;;;5142583;27;20481;-41
2021/09/12 08:50:20;;;;;;;5.27;4.77;;;18.30;99.90;;;;;;5144038;27;20468;-41
2021/09/12 08:52:51;;;;;;;4.40;3.90;;;18.30;99.90;;;;;;5143232;27;20464;-41
2021/09/12 08:55:23;;;;;;;5.70;4.13;;;18.20;99.90;;;;;;5142959;27;20468;-41
2021/09/12 08:57:58;;;;;;;4.40;4.10;;;18.20;99.90;;;;;;5143539;27;20424;-41
2021/09/12 09:00:31;;;;;;;4.47;4.07;;;18.20;99.90;;;;;;5143389;27;20448;-42
2021/09/12 09:03:04;;;;;;;4.60;3.93;;;18.20;99.90;;;;;;5143582;27;20453;-41
2021/09/12 09:05:37;;;;;;;4.10;3.80;;;18.10;99.90;;;;;;5143474;27;20423;-41
2021/09/12 09:08:10;;;;;;;4.10;3.80;;;18.10;99.90;;;;;;5142409;27;20419;-41
2021/09/12 09:10:43;;;;;;;4.50;4.10;;;18.00;99.90;;;;;;5142852;27;20756;-41
2021/09/12 09:13:32;;;;;;;4.60;4.30;;;17.80;99.90;;;;;;5141034;27;20487;-41
2021/09/12 09:16:06;;;;;;;4.33;3.93;;;17.80;99.90;;;;;;5143255;28;21039;-42
2021/09/12 09:18:40;;;;;;;4.03;3.73;;;17.80;99.90;;;;;;5143622;27;20458;-41
2021/09/12 09:21:35;;;;;;;5.40;3.70;;;17.70;99.90;;;;;;5144693;27;20451;-43
2021/09/12 09:24:15;;;;;;;4.20;3.90;;;17.70;99.90;;;;;;5128074;27;20494;-40
2021/09/12 09:26:48;;;;;;;4.57;4.20;;;17.70;99.90;;;;;;5147119;27;20450;-41
2021/09/12 09:29:25;;;;;;;4.73;4.33;;;17.60;99.90;;;;;;5137846;27;20419;-41
2021/09/12 09:32:09;;;;;;;4.73;4.33;;;17.60;99.90;;;;;;5147426;27;20480;-40
2021/09/12 09:35:00;;;;;;;4.27;3.97;;;17.60;99.90;;;;;;5132114;27;20476;-42
2021/09/12 09:37:31;;;;;;;4.00;3.70;;;17.50;99.90;;;;;;5147852;27;20447;-42
2021/09/12 09:40:03;;;;;;;4.87;4.47;;;17.50;99.90;;;;;;5146481;27;20434;-44
2021/09/12 09:42:35;;;;;;;4.70;4.30;;;17.50;99.90;;;;;;5146448;27;20448;-40
2021/09/12 09:45:08;;;;;;;4.57;4.17;;;17.40;99.90;;;;;;5147203;27;20472;-41
2021/09/12 09:47:42;;;;;;;5.10;4.37;;;17.50;99.90;;;;;;5147173;27;20571;-41
2021/09/12 09:50:15;;;;;;;4.77;4.37;;;17.50;99.90;;;;;;5147452;27;20411;-43
2021/09/12 09:52:47;;;;;;;4.30;3.97;;;17.50;99.90;;;;;;5147475;27;20446;-44
2021/09/12 09:55:19;;;;;;;4.20;3.90;;;17.40;99.90;;;;;;5146714;27;20463;-41
2021/09/12 09:57:52;;;;;;;4.20;3.90;;;17.40;99.90;;;;;;5146412;27;20488;-41
2021/09/12 10:00:26;;;;;;;4.27;3.97;;;17.40;99.90;;;;;;5147185;27;20444;-44
2021/09/12 10:02:59;;;;;;;4.83;4.43;;;17.40;99.90;;;;;;5130821;27;20473;-41
2021/09/12 10:05:31;;;;;;;4.80;4.40;;;17.40;99.90;;;;;;5147025;27;20434;-42
2021/09/12 10:08:02;;;;;;;4.07;3.67;;;17.40;99.90;;;;;;5147178;27;20500;-40
2021/09/12 10:10:34;;;;;;;4.63;4.23;;;17.40;99.90;;;;;;5146138;27;20508;-42
2021/09/12 10:13:07;;;;;;;4.23;3.90;;;17.40;99.90;;;;;;5130180;27;20455;-42
2021/09/12 10:15:41;;;;;;;6.07;4.80;;;17.30;99.90;;;;;;5146253;27;20510;-41
2021/09/12 10:18:15;;;;;;;4.90;4.37;;;17.30;99.90;;;;;;5145377;27;20506;-41
2021/09/12 10:20:46;;;;;;;4.43;4.03;;;17.20;99.90;;;;;;5146356;27;20437;-42
2021/09/12 10:23:17;;;;;;;4.53;4.20;;;17.30;99.90;;;;;;5131830;27;20519;-41
2021/09/12 10:25:59;;;;;;;4.57;4.20;;;17.30;99.90;;;;;;5146706;27;20430;-42
2021/09/12 10:28:32;;;;;;;4.10;3.80;;;17.20;99.90;;;;;;5145828;27;20984;-41
2021/09/12 10:31:23;;;;;;;4.30;4.00;;;17.20;99.90;;;;;;5135074;27;20470;-41
2021/09/12 10:34:08;;;;;;;4.80;4.50;;;17.20;99.90;;;;;;5146098;27;20487;-41
2021/09/12 10:36:40;;;;;;;4.70;4.30;;;17.20;99.90;;;;;;5146106;27;20453;-41
2021/09/12 10:39:35;;;;;;;8.10;4.90;;;17.20;99.90;;;;;;5145782;27;20428;-41
2021/09/12 10:42:19;;;;;;;4.87;4.37;;;17.10;99.90;;;;;;5139975;27;20505;-41
2021/09/12 10:45:21;;;;;;;4.40;4.00;;;17.10;99.90;;;;;;5145822;27;20927;-41
2021/09/12 10:47:53;;;;;;;5.07;4.57;;;17.10;99.90;;;;;;5061881;28;20411;-41
2021/09/12 10:50:45;;;;;;;5.07;4.67;;;17.10;99.90;;;;;;5061693;28;20549;-41
2021/09/12 10:53:16;;;;;;;5.00;4.30;;;17.20;99.90;;;;;;5061550;28;20459;-41
2021/09/12 10:56:04;;;;;;;5.33;4.93;;;17.10;99.90;;;;;;5061639;28;20516;-42
2021/09/12 10:58:35;;;;;;;5.10;4.50;;;17.20;99.90;;;;;;5061761;28;20481;-42
2021/09/12 11:01:08;;;;;;;5.17;4.77;;;17.10;99.90;;;;;;5061875;28;20435;-42
2021/09/12 11:03:39;;;;;;;5.30;4.90;;;17.20;99.90;;;;;;5061409;28;20537;-42
2021/09/12 11:06:17;;;;;;;5.30;4.90;;;17.20;99.90;;;;;;5062368;28;20452;-41
2021/09/12 11:08:47;;;;;;;4.90;4.50;;;17.30;99.90;;;;;;5061562;28;20423;-41
2021/09/12 11:11:20;;;;;;;5.60;4.20;;;17.30;99.90;;;;;;5061580;28;20423;-41
2021/09/12 11:13:53;;;;;;;4.70;4.30;;;17.30;99.90;;;;;;5058760;28;20452;-41
2021/09/12 11:16:25;;;;;;;4.07;3.77;;;17.40;99.90;;;;;;5060622;28;20464;-41
2021/09/12 11:19:03;;;;;;;4.43;4.03;;;17.50;99.90;;;;;;5061292;28;20419;-42
2021/09/12 11:21:37;;;;;;;4.00;3.70;;;17.40;99.90;;;;;;5086642;27;20426;-42
2021/09/12 11:24:10;;;;;;;4.23;3.83;;;17.50;99.90;;;;;;5143008;27;20465;-41
2021/09/12 11:26:44;;;;;;;4.07;3.70;;;17.50;99.90;;;;;;5145828;27;20455;-41
2021/09/12 11:29:16;;;;;;;3.77;3.47;;;17.50;99.90;;;;;;5144815;27;20477;-40
2021/09/12 11:31:49;;;;;;;4.00;3.70;;;17.50;99.90;;;;;;5145244;27;20563;-41
2021/09/12 11:34:22;;;;;;;4.23;3.83;;;17.60;99.90;;;;;;5134823;27;20464;-41
2021/09/12 11:36:56;;;;;;;3.97;3.57;;;17.60;99.90;;;;;;5146174;27;20416;-41
2021/09/12 11:39:28;;;;;;;3.70;3.40;;;17.60;99.90;;;;;;5144532;27;20416;-41
2021/09/12 11:42:02;;;;;;;3.80;3.40;;;17.60;99.90;;;;;;5143501;27;20453;-41
2021/09/12 11:44:34;;;;;;;4.37;3.60;;;17.60;99.90;;;;;;5143318;27;20470;-41
2021/09/12 11:47:10;;;;;;;4.77;4.37;;;17.60;99.90;;;;;;5144669;27;20441;-42
2021/09/12 11:49:42;;;;;;;4.20;3.77;;;17.60;99.90;;;;;;5145043;27;20987;-41
2021/09/12 11:52:15;;;;;;;4.40;4.00;;;17.70;99.90;;;;;;5144886;27;20460;-41
2021/09/12 11:54:46;;;;;;;4.17;3.77;;;17.60;99.90;;;;;;5143758;27;20447;-41
2021/09/12 11:57:17;;;;;;;4.27;3.97;;;17.60;99.90;;;;;;5144782;27;20449;-41
2021/09/12 11:59:50;;;;;;;3.93;3.63;;;17.60;99.90;;;;;;5140228;27;20449;-41
2021/09/12 12:02:24;;;;;;;3.53;3.23;;;17.60;99.90;;;;;;5144999;27;20509;-42
2021/09/12 12:04:58;;;;;;;4.23;3.83;;;17.60;99.90;;;;;;5143831;27;20464;-41
2021/09/12 12:07:40;;;;;;;4.00;3.53;;;17.60;99.90;;;;;;5145090;27;20864;-41
2021/09/12 12:10:11;;;;;;;6.27;3.60;;;17.60;99.90;;;;;;5144174;27;20466;-42
2021/09/12 12:12:42;;;;;;;4.37;3.97;;;17.60;99.90;;;;;;5138082;27;20568;-41
2021/09/12 12:15:13;;;;;;;4.00;3.70;;;17.50;99.90;;;;;;5144071;27;20475;-41
2021/09/12 12:17:54;;;;;;;4.57;4.17;;;17.50;99.90;;;;;;5143754;27;20441;-41
2021/09/12 12:20:34;;;;;;;3.73;3.43;;;17.60;99.90;;;;;;5143970;27;20451;-41
2021/09/12 12:23:18;;;;;;;5.37;4.13;;;17.50;99.90;;;;;;5131628;27;20449;-42
2021/09/12 12:25:53;;;;;;;4.00;3.60;;;17.50;99.90;;;;;;5143296;27;20442;-42
2021/09/12 12:28:26;;;;;;;4.13;3.60;;;17.50;99.90;;;;;;5144210;27;21206;-41
2021/09/12 12:31:11;;;;;;;4.40;4.00;;;17.50;99.90;;;;;;5142745;27;20459;-42
2021/09/12 12:33:44;;;;;;;4.40;4.00;;;17.50;99.90;;;;;;5139405;27;20480;-41
2021/09/12 12:36:16;;;;;;;3.83;3.50;;;17.50;99.90;;;;;;5143196;27;20484;-42
2021/09/12 12:38:49;;;;;;;4.53;3.87;;;17.50;99.90;;;;;;5143786;27;20435;-42
2021/09/12 12:41:24;;;;;;;4.57;4.00;;;17.50;99.90;;;;;;5139371;27;20911;-41
2021/09/12 12:43:55;;;;;;;8.63;3.80;;;17.50;99.90;;;;;;5144057;27;20448;-42
2021/09/12 12:46:45;;;;;;;3.97;3.57;;;17.30;99.90;;;;;;5144081;27;20469;-41
2021/09/12 12:49:25;;;;;;;6.23;3.47;;;17.30;99.90;;;;;;5142988;27;20474;-41
2021/09/12 12:52:07;;;;;;;3.77;3.47;;;17.30;99.90;;;;;;5143987;27;20488;-42
2021/09/12 12:54:42;;;;;;;4.13;3.80;;;17.20;99.90;;;;;;5142279;27;20469;-42
2021/09/12 12:57:14;;;;;;;4.00;3.70;;;17.20;99.90;;;;;;5142960;27;20476;-41
2021/09/12 12:59:49;;;;;;;4.43;4.13;;;17.20;99.90;;;;;;5143393;27;20440;-42
2021/09/12 13:02:20;;;;;;;3.53;3.17;;;17.30;99.90;;;;;;5143334;27;20422;-42
2021/09/12 13:04:52;;;;;;;3.90;3.60;;;17.20;99.90;;;;;;5144456;27;20535;-42
2021/09/12 13:07:23;;;;;;;4.00;3.60;;;17.20;99.90;;;;;;5143634;27;20517;-41
2021/09/12 13:09:55;;;;;;;3.77;3.47;;;17.20;99.90;;;;;;5141633;27;20452;-42
2021/09/12 13:12:26;;;;;;;4.20;3.83;;;17.10;99.90;;;;;;5143081;27;20453;-42
2021/09/12 13:14:57;;;;;;;4.10;3.70;;;17.10;99.90;;;;;;5143320;27;20425;-42
2021/09/12 13:17:28;;;;;;;3.83;3.53;;;17.10;99.90;;;;;;5141282;28;20411;-42
2021/09/12 13:19:59;;;;;;;3.80;3.50;;;17.10;99.90;;;;;;5143538;27;20423;-42